Historyczne dane pomiarowe

Dodano dane terminowe – wersja testowa.

Dane z okresu 1951-2019

Wersja bazy: 1.34 [2019-03-16, lista zmian], aktualizacja planowana na 2019-04-15

Dane meteo z obszaru Polski uzyskane na podstawie danych udostępnionych przez Instytut Meteorologii i Gospodarki Wodnej – Państwowy Instytut Badawczy.

 

Wybierz Datę:    

       

TemperaturaWilgotnośćZachmurzenieWiatrCiśnienieWidzialnośćZjawiska
 Data    tng td wb rh cc ccl cl cm ch dir g1 g2 mslp ppp      
1999-06-27 00:00:00 15.4--- 13.0 14.086wxwxwx3wx--1010.6 987.9 0.0---wx
1999-06-27 01:00:00 14.8--- 13.1 13.890wxwxwx3wx--1010.3 987.5----wx
1999-06-27 02:00:00 14.7--- 13.0 13.790wxwxwx3wx--1010.2 987.4----wx
1999-06-27 03:00:00 15.2--- 13.2 14.088wxwxwxwx3wx--1010.2 987.4----wx
1999-06-27 04:00:00 15.2--- 12.8 13.886wxwxwxwx3wx--1010.4 987.6----wx
1999-06-27 05:00:00 16.3--- 13.1 14.481wxwxwxwxwx3wx--1010.6 987.9----wx
1999-06-27 06:00:00 16.3--- 13.6 14.784wxwxwxwx3wx--1011.0 988.3 0.0---wx
1999-06-27 07:00:00 17.6--- 14.0 15.479wxwxwx2wx--1010.3 987.7----wx
1999-06-27 08:00:00 18.1--- 14.9 16.181wxwxwx3wx--1010.8 988.3----wx
1999-06-27 09:00:00 18.8--- 15.5 16.781wxwxwxwx3wx--1011.1 988.6----wxw1
1999-06-27 10:00:00 21.8--- 15.0 17.565wxwxwxwxwx3wx--1011.0 988.7----wx
1999-06-27 11:00:00 22.6--- 15.5 18.164wxwxwxwx2wx--1011.0 988.8----wx
1999-06-27 12:00:00 22.4--- 15.5 18.065wxwxwx2wx--1010.9 988.7 0.0---wxw1
1999-06-27 13:00:00 23.0--- 15.1 18.061wxwxwxwx3wx--1010.5 988.3----wx
1999-06-27 14:00:00 24.1--- 14.4 18.055wxwxwxwx3wx--1010.1 988.0----wx
1999-06-27 15:00:00 22.6--- 15.7 18.265wxwxwxwxwx4wx--1010.4 988.2----wx
1999-06-27 16:00:00 23.4--- 15.2 18.260wxwxwxwxwx4wx--1009.9 987.8----wx
1999-06-27 17:00:00 23.3--- 15.6 18.462wxwxwxwxwx3wx--1009.9 987.8----wx
1999-06-27 18:00:00 22.1--- 15.0 17.664wxwxwxwx3wx--1010.2 988.0 0.0---wx
1999-06-27 19:00:00 19.9--- 15.3 17.075wxwxwxwx2wx--1010.6 988.2----wx
1999-06-27 20:00:00 19.0--- 15.5 16.880wxwxwxwx2wx--1010.9 988.4----wx
1999-06-27 21:00:00 18.2--- 15.5 16.584wxwxwxwx2wx--1010.8 988.3----wxw1
1999-06-27 22:00:00 17.7--- 15.5 16.387wxwxwxwx2wx--1011.0 988.4----wx
1999-06-27 23:00:00 17.1--- 16.0 16.493wxwxwxwx2wx--1010.4 987.8----wx

 

Źródłem pochodzenia danych jest Instytut Meteorologii i Gospodarki Wodnej – Państwowy Instytut Badawczy. Dane Instytutu Meteorologii i Gospodarki Wodnej – Państwowego Instytutu Badawczego zostały przetworzone.

Dane źródłowe można odnaleźć na stronie https://dane.imgw.pl